Weather at Agdenes Airfield Breivika

Public forecast

Using degrees Celsius for public forecast. Weather courtesy of forecast.io.

Closest aviation weather report (METAR) to Agdenes Airfield Breivika

Closest report is Ørland Airport, 5.3 nm (9.9 km) NW.

2024/05/22 17:50 (retrieved 25 minutes ago)

ENOL 221750Z 35008KT CAVOK 23/08 Q1015 NOSIG

Closest aviation forecast (TAF) to Agdenes Airfield Breivika

Closest forecast is Ørland Airport, 5.3 nm (9.9 km) NW.

2024/05/22 18:36 (retrieved 0 seconds ago)

TAF ENOL 221700Z 2218/2318 34008KT CAVOK BECMG 2222/2301 13012KT BECMG 2311/2313 34010KT